createdAt,value
2023-05-10T00:03:32.399Z,7.31
2023-05-10T00:08:36.424Z,7.15
2023-05-10T00:13:41.965Z,7.14
2023-05-10T00:18:46.017Z,7.13
2023-05-10T00:23:49.956Z,7.13
2023-05-10T00:28:55.239Z,6.96
2023-05-10T00:33:59.389Z,7.09
2023-05-10T00:39:04.581Z,7.03
2023-05-10T00:44:10.162Z,7.10
2023-05-10T00:49:14.909Z,7.18
2023-05-10T00:54:19.028Z,7.16
2023-05-10T00:59:24.364Z,7.13
2023-05-10T01:04:28.655Z,7.05
2023-05-10T01:09:33.102Z,7.06
2023-05-10T01:14:39.025Z,7.07
2023-05-10T01:19:44.477Z,7.06
2023-05-10T01:25:21.379Z,6.98
2023-05-10T01:31:09.597Z,7.07
2023-05-10T01:36:27.278Z,7.11
2023-05-10T01:41:42.229Z,7.19
2023-05-10T01:46:51.131Z,7.28
2023-05-10T01:52:01.689Z,6.89
2023-05-10T01:57:10.166Z,6.27
2023-05-10T02:02:17.108Z,5.89
2023-05-10T02:07:25.463Z,6.16
2023-05-10T02:12:31.084Z,6.14
2023-05-10T02:17:37.303Z,5.80
2023-05-10T02:22:43.855Z,5.50
2023-05-10T02:27:49.657Z,5.48
2023-05-10T02:32:54.501Z,5.55
2023-05-10T02:38:01.380Z,5.33
2023-05-10T02:43:11.321Z,5.23
2023-05-10T02:48:15.653Z,5.34
2023-05-10T02:53:25.726Z,5.25
2023-05-10T02:58:30.110Z,5.29
2023-05-10T03:03:34.137Z,5.13
2023-05-10T03:08:39.672Z,5.07
2023-05-10T03:13:56.423Z,5.11
2023-05-10T03:19:11.247Z,5.05
2023-05-10T03:24:18.647Z,5.16
2023-05-10T03:29:27.913Z,5.10
2023-05-10T04:11:41.242Z,5.48
2023-05-10T04:16:45.318Z,5.59
2023-05-10T04:21:49.240Z,5.77
2023-05-10T04:26:57.734Z,5.78
2023-05-10T04:32:01.899Z,5.75
2023-05-10T04:37:05.820Z,5.86
2023-05-10T04:42:11.608Z,6.15
2023-05-10T04:47:15.489Z,6.03
2023-05-10T04:52:19.523Z,6.18
2023-05-10T04:57:24.846Z,6.32
2023-05-10T05:02:28.911Z,6.36
2023-05-10T05:07:32.975Z,6.58
2023-05-10T05:12:38.234Z,7.00
2023-05-10T05:17:42.168Z,7.07
2023-05-10T05:22:46.012Z,7.30
2023-05-10T05:27:51.321Z,7.49
2023-05-10T05:32:55.439Z,7.42
2023-05-10T05:37:59.408Z,7.24
2023-05-10T05:43:04.762Z,7.23
2023-05-10T05:48:08.743Z,7.19
2023-05-10T05:53:12.764Z,7.26
2023-05-10T05:58:18.163Z,7.30
2023-05-10T06:03:22.642Z,7.40
2023-05-10T06:08:26.919Z,7.59
2023-05-10T06:13:33.720Z,7.50
2023-05-10T06:18:39.806Z,7.70
2023-05-10T06:23:43.887Z,7.63
2023-05-10T06:28:49.310Z,7.93
2023-05-10T06:33:55.344Z,7.97
2023-05-10T06:39:00.520Z,8.09
2023-05-10T06:44:06.314Z,7.97
2023-05-10T06:49:10.548Z,8.26
2023-05-10T06:54:15.329Z,8.30
2023-05-10T06:59:22.612Z,8.61
2023-05-10T07:04:26.362Z,8.47
2023-05-10T07:09:31.078Z,8.27
2023-05-10T07:14:36.411Z,8.51
2023-05-10T07:19:40.359Z,8.76
2023-05-10T07:24:44.465Z,8.60
2023-05-10T07:29:49.841Z,8.96
2023-05-10T07:34:53.983Z,9.45
2023-05-10T07:40:01.196Z,9.65
2023-05-10T07:45:07.672Z,9.94
2023-05-10T07:50:15.177Z,10.24
2023-05-10T07:55:21.063Z,9.98
2023-05-10T08:00:28.252Z,10.15
2023-05-10T08:05:34.064Z,9.94
2023-05-10T08:10:39.716Z,10.18
2023-05-10T08:15:45.005Z,10.13
2023-05-10T08:20:49.386Z,10.08
2023-05-10T08:25:53.608Z,10.31
2023-05-10T08:30:59.011Z,10.46
2023-05-10T08:36:02.978Z,10.52
2023-05-10T08:41:08.185Z,10.62
2023-05-10T08:46:15.355Z,10.28
2023-05-10T08:51:22.344Z,10.07
2023-05-10T08:56:26.370Z,10.25
2023-05-10T09:01:33.896Z,10.26
2023-05-10T09:12:06.262Z,10.76
2023-05-10T09:17:12.342Z,10.97
2023-05-10T09:22:16.416Z,11.18
2023-05-10T09:27:31.401Z,11.93
2023-05-10T09:32:41.787Z,12.26
2023-05-10T09:37:48.828Z,12.58
2023-05-10T09:42:57.347Z,12.10
2023-05-10T09:48:04.307Z,11.92
2023-05-10T09:53:08.355Z,12.16
2023-05-10T09:58:12.504Z,12.49
2023-05-10T10:14:17.053Z,12.10
2023-05-10T10:19:23.206Z,12.00
2023-05-10T10:24:27.123Z,11.68
2023-05-10T10:29:44.034Z,11.92
2023-05-10T10:34:50.095Z,11.75
2023-05-10T10:39:54.113Z,11.44
2023-05-10T10:45:14.635Z,11.67
2023-05-10T10:50:20.282Z,11.72
2023-05-10T10:55:25.989Z,11.51
2023-05-10T11:00:31.919Z,11.69
2023-05-10T11:05:42.564Z,11.71
2023-05-10T11:10:55.280Z,11.12
2023-05-10T11:16:00.118Z,11.11
2023-05-10T11:21:06.654Z,11.68
2023-05-10T11:26:12.047Z,11.98
2023-05-10T11:31:16.431Z,11.78
2023-05-10T11:36:23.114Z,11.42
2023-05-10T11:41:28.954Z,12.10
2023-05-10T11:46:36.455Z,12.01
2023-05-10T11:51:43.323Z,11.85
2023-05-10T11:56:47.488Z,12.05
2023-05-10T12:01:51.621Z,12.11
2023-05-10T12:06:57.180Z,12.29
2023-05-10T12:12:01.950Z,11.99
2023-05-10T12:17:05.865Z,12.22
2023-05-10T12:22:12.532Z,12.26
2023-05-10T12:27:16.864Z,12.55
2023-05-10T12:32:20.854Z,12.55
2023-05-10T12:37:32.154Z,12.55
2023-05-10T12:42:36.556Z,12.55
2023-05-10T12:47:44.328Z,12.92
2023-05-10T12:52:49.638Z,12.85
2023-05-10T12:57:53.777Z,13.00
2023-05-10T13:02:57.800Z,12.96
2023-05-10T13:08:03.403Z,12.98
2023-05-10T13:13:08.508Z,13.29
2023-05-10T13:18:12.453Z,13.32
2023-05-10T13:23:17.805Z,12.78
2023-05-10T13:28:21.708Z,12.97
2023-05-10T13:33:25.638Z,12.99
2023-05-10T13:38:30.923Z,13.20
2023-05-10T13:43:35.004Z,13.04
2023-05-10T13:48:39.577Z,12.70
2023-05-10T13:53:44.907Z,12.34
2023-05-10T13:58:48.798Z,12.24
2023-05-10T14:03:56.279Z,11.98
2023-05-10T14:09:02.562Z,11.77
2023-05-10T14:14:06.493Z,11.43
2023-05-10T14:19:10.630Z,11.37
2023-05-10T14:24:16.040Z,11.22
2023-05-10T14:29:20.007Z,11.14
2023-05-10T14:34:23.903Z,11.03
2023-05-10T14:39:30.642Z,10.76
2023-05-10T14:44:34.490Z,10.65
2023-05-10T14:49:38.393Z,10.71
2023-05-10T14:54:43.695Z,10.80
2023-05-10T14:59:47.608Z,10.65
2023-05-10T15:04:52.150Z,10.68
2023-05-10T15:09:58.050Z,10.46
2023-05-10T15:15:01.984Z,10.50
2023-05-10T15:20:07.247Z,10.52
2023-05-10T15:25:12.673Z,10.40
2023-05-10T15:30:16.921Z,10.17
2023-05-10T15:35:21.079Z,10.13
2023-05-10T15:40:26.370Z,9.88
2023-05-10T15:45:30.551Z,9.90
2023-05-10T15:50:34.603Z,9.79
2023-05-10T15:55:39.827Z,9.86
2023-05-10T16:00:43.817Z,9.62
2023-05-10T16:05:47.818Z,9.54
2023-05-10T16:10:54.024Z,9.56
2023-05-10T16:15:58.532Z,9.43
2023-05-10T16:21:02.915Z,9.31
2023-05-10T16:26:09.984Z,9.39
2023-05-10T16:31:13.931Z,9.21
2023-05-10T16:36:17.943Z,9.15
2023-05-10T16:41:23.240Z,9.17
2023-05-10T16:46:27.409Z,9.10
2023-05-10T16:51:31.501Z,8.96
2023-05-10T16:56:36.811Z,9.08
2023-05-10T17:01:40.830Z,9.08
2023-05-10T17:06:44.730Z,8.97
2023-05-10T17:11:50.009Z,8.95
2023-05-10T17:16:55.246Z,8.84
2023-05-10T17:21:59.191Z,8.78
2023-05-10T17:27:04.605Z,8.82
2023-05-10T17:32:09.393Z,8.75
2023-05-10T17:37:13.296Z,8.77
2023-05-10T17:42:19.474Z,8.74
2023-05-10T17:47:23.397Z,8.68
2023-05-10T17:52:27.421Z,8.67
2023-05-10T17:57:33.291Z,8.67
2023-05-10T18:02:37.791Z,8.60
2023-05-10T18:07:41.938Z,8.62
2023-05-10T18:12:47.301Z,8.57
2023-05-10T18:17:51.523Z,8.69
2023-05-10T18:22:56.239Z,8.77
2023-05-10T18:28:01.534Z,8.86
2023-05-10T18:33:05.505Z,8.66
2023-05-10T18:38:10.254Z,8.66
2023-05-10T18:43:15.733Z,8.74
2023-05-10T18:48:19.682Z,8.74
2023-05-10T18:53:23.696Z,8.79
2023-05-10T18:58:30.171Z,8.78
2023-05-10T19:03:34.152Z,8.73
2023-05-10T19:08:38.027Z,8.67
2023-05-10T19:13:45.184Z,8.62
2023-05-10T19:18:50.795Z,8.57
2023-05-10T19:23:56.776Z,8.57
2023-05-10T19:29:04.823Z,8.58
2023-05-10T19:34:08.764Z,8.60
2023-05-10T19:39:13.151Z,8.58
2023-05-10T19:44:18.414Z,8.56
2023-05-10T19:49:22.744Z,8.59
2023-05-10T19:54:26.736Z,8.58
2023-05-10T19:59:32.089Z,8.56
2023-05-10T20:04:36.010Z,8.50
2023-05-10T20:09:39.988Z,8.43
2023-05-10T20:14:45.300Z,8.50
2023-05-10T20:19:49.234Z,8.51
2023-05-10T20:24:55.883Z,8.43
2023-05-10T20:30:01.555Z,8.43
2023-05-10T20:35:05.964Z,8.50
2023-05-10T20:40:11.070Z,8.41
2023-05-10T20:45:16.566Z,8.46
2023-05-10T20:50:20.552Z,8.35
2023-05-10T20:55:24.565Z,8.23
2023-05-10T21:00:29.878Z,8.23
2023-05-10T21:05:33.767Z,8.28
2023-05-10T21:10:37.672Z,8.20
2023-05-10T21:15:42.954Z,8.25
2023-05-10T21:20:46.874Z,8.23
2023-05-10T21:25:50.878Z,8.11
2023-05-10T21:30:56.172Z,8.09
2023-05-10T21:36:00.141Z,8.04
2023-05-10T21:41:08.094Z,8.14
2023-05-10T21:46:14.321Z,8.04
2023-05-10T21:51:18.303Z,8.01
2023-05-10T21:56:22.470Z,8.07
2023-05-10T22:01:27.845Z,8.04
2023-05-10T22:06:31.992Z,8.06
2023-05-10T22:11:35.858Z,7.91
2023-05-10T22:16:41.183Z,7.92
2023-05-10T22:21:45.150Z,7.92
2023-05-10T22:26:49.043Z,8.00
2023-05-10T22:31:54.436Z,8.15
2023-05-10T22:36:58.329Z,7.97
2023-05-10T22:42:02.206Z,7.97
2023-05-10T22:47:09.013Z,7.87
2023-05-10T22:52:12.925Z,8.11
2023-05-10T22:57:17.367Z,8.13
2023-05-10T23:02:22.707Z,7.96
2023-05-10T23:07:26.676Z,7.91
2023-05-10T23:12:31.382Z,7.90
2023-05-10T23:17:36.744Z,7.90
2023-05-10T23:22:40.638Z,7.89
2023-05-10T23:27:45.809Z,7.93
2023-05-10T23:32:51.073Z,7.83
2023-05-10T23:37:55.152Z,7.84
2023-05-10T23:42:59.098Z,7.76
2023-05-10T23:48:04.531Z,7.64
2023-05-10T23:53:08.453Z,7.71
2023-05-10T23:58:12.661Z,7.52
